Beacon N6, Kuwait

2:22 AM AST on February 23, 2017 (GMT +0300)
Block 9 | | Change Station

Elev 32 ft 29.34 °N, 48.06 °E | Updated 42 seconds ago

Clear
Clear
58.1 °F
Feels Like 58.1 °F
N
0.0
Wind Variable Wind from North
Gusts 0.6 mph

Today
High -- | Low -- °F
--% Chance of Precip.
Yesterday
High -- | Low -- °F
Precip. -- in
Pressure 29.98 in
Visibility -9999.0 miles
Clouds
Dew Point 41 °F
Humidity 53%
Rainfall 0.00 in
Snow Depth Not available.
6:19 AM 5:42 PM
Waning Crescent, 14% visible
METAR OKBK 222300Z 00000KT CAVOK 09/M01 Q1015 NOSIG
Pressure 29.98 in
Visibility -9999.0 miles
Clouds
Dew Point 41 °F
Humidity 53%
Rainfall 0.00 in
Snow Depth Not available.
6:19 AM 5:42 PM
Waning Crescent, 14% visible
METAR OKBK 222300Z 00000KT CAVOK 09/M01 Q1015 NOSIG

Get Your Daily Forecast Email!

Thanks for signing up!

Be on the lookout for a verification email in your inbox.

You'll start receiving the daily forecast at 8 AM.

×

10-Day Weather Forecast

No radar image for this location.
×

Almanac

Astronomy

Feb. 23, 2017 Rise Set
Actual Time
Civil Twilight
Nautical Twilight
Astronomical Twilight
Moon
Length of Visible Light
Length of Day
Tomorrow will be .
, % of the Moon is Illuminated

Today's Extremes

Country Highs Country Lows

Community

WunderPhotos

Upload Photos

1,962,540 photos uploaded!

WunderBlog® & News

Nearby

Air Quality

  Air Quality AQ Index Pollutant
Not available.

Snow Depth

Station Depth Elevation

Earthquake Activity

City Distance Mag. Time & Date
Minimum magnitude displayed is 2.5.

Coastal Water Temperatures

Place Temperature

Stations

Nearby Weather Stations

Station Location Temp. Windchill Dew Point Humidity Wind Precip. Elev Updated Type